航空気象通報

ウインドサーファーのための航空気象通報による風予報です。

3/30-31の航空気象通報

2007年03月31日 01時07分18秒 | TAF
羽田空港
TAF RJTT 301444Z 310018 12010KT 9000 FEW015 SCT030 BKN050
BECMG 0306 18014KT
TEMPO 0915 SHRA
日本時間31日09-12時:120度から10ノットの風
12-15時:風が変化
15時-1日03時:180度から14ノットの風

但し、18-24時:一時、

那覇空港
ROAH 301449Z 310018 19012KT 9999 FEW010 SCT020
日本時間31日09時-1日03時:190度から12ノットの風


マウイのカフルイ空港
PHOG 301134Z 301212 14004KT P6SM FEW040
TEMPO 1214 -SHRA BKN020 BKN040
FM2000 36010KT P6SM SCT060
FM1000 16005KT P6SM FEW040
ハワイ時間30日02-10時:140度から4ノットの風、
但し、30日02-04時:一時、
10-24時:360度から10ノットの風
31日00-02時:160度から5ノットの風


サイパン空港
PGSN 301132Z 301212 05010KT P6SM SCT020 SCT035
FM2100 06018KT P6SM VCSH SCT020 SCT040
マリアナ時間30日22時-31日07時:050度から10ノットの風
07-22時:060度から18ノットの風


グアム空港
PGUM 301132Z 301212 06009KT P6SM VCSH SCT020
FM2200 06018KT P6SM VCSH SCT020 SCT040
マリアナ時間30日22時-31日08時:060度から9ノットの風
08-22時:060度から18ノットの風

コメント

3/29-30の航空気象通報

2007年03月29日 22時37分19秒 | TAF
羽田空港
TAF RJTT 290842Z 291812 04010KT 9999 FEW008 SCT010 BKN020
TEMPO 1824 4000 -SHRA BR
BECMG 2124 23006KT
BECMG 0306 36010KT
日本時間30日03-06時:040度から10ノットの風
但し、03-06時:一時、
06-09時:風が変化
09-12時:230度から6ノットの風
12-15時:風が変化
15-21時:360度から10ノットの風


那覇空港
ROAH 290838Z 291812 21006KT 9999 FEW015 SCT040
日本時間30日03-21時:210度から6ノットの風


マウイのカフルイ空港
PHOG 291135Z 291212 14005KT P6SM FEW030
FM2100 01010KT P6SM SCT060
FM0800 14005KT P6SM FEW030
ハワイ時間29日02-11時:140度から5ノットの風
11-20時:010度から10ノットの風
20時-30日02時:140度から5ノットの風


サイパン空港
PGSN 291120Z 291212 07013G20KT P6SM FEW020 SCT050
マリアナ時間29日22時-30日22時:070度から13ノット、突風20ノット


グアム空港
PGUM 291120Z 291212 07008KT P6SM VCSH FEW020 SCT050
FM2300 07016G24KT P6SM VCSH SCT025 SCT050
FM0900 06011KT P6SM VCSH FEW020 SCT050
マリアナ時間29日22時-30日09時:070度から8ノットの風
09-19時:070度から16ノット、突風24ノット
19-22時:060度から11ノットの風

コメント

3/28-29の航空気象通報

2007年03月28日 21時12分45秒 | TAF
羽田空港
TAF RJTT 280840Z 281812 31005KT 9999 FEW030
BECMG 1821 20015KT
TEMPO 0309 22022G32KT
BECMG 0912 04008KT
日本時間29日03時:310度から5ノットの風
03-06時:風が変化
06-18時:200度から15ノットの風
但し。12-18時:一時、220度から22ノット、突風32ノット
18-21時:風が変化
21時:040度から8ノットの風


那覇空港
ROAH 280845Z 281812 18008KT 9999 FEW030
日本時間29日03-21時:180度から8ノットの風


マウイのカフルイ空港
PHOG 281120Z 281212 15004KT P6SM SKC
FM2000 35010KT P6SM FEW035 BKN050
FM0600 15005KT P6SM SCT050
ハワイ時間28日02-10時:150度から4ノットの風、
10-20時:350度から10ノットの風、
20時-29日02時:150度から5ノットの風、

サイパン空港
PGSN 281120Z 281212 06011KT P6SM SCT020
マリアナ時間28日22時-29日22時:060度から11ノットの風


グアム空港
PGUM 281120Z 281212 06007KT P6SM FEW025
FM2300 07012G18KT P6SM SCT025
FM0900 06009KT P6SM FEW020
マリアナ時間28日22時-29日09時:060度から7ノットの風
09-19時:070度から12ノット、突風18ノットの風
10-22時:060度から9ノットの風

コメント

3/27-28の航空気象通報(国内、海外)

2007年03月27日 19時20分48秒 | TAF
羽田空港
TAF RJTT 270841Z 271812 36005KT 4000 BR FEW030
BECMG 0003 9999 NSW
BECMG 0306 14010KT
日本時間28日03-12時:360度から5ノットの風
12-15時:風が変化
15-21時:140度から10ノットの風


那覇空港
ROAH 270840Z 271812 03010KT 9999 FEW020 SCT040
BECMG 0306 12010KT
日本時間28日03-12時:030度から10ノットの風
12-15時:風が変化
15-21時:120度から10ノットの風


マウイのカフルイ空港
PHOG 271120Z 271212 15005KT P6SM SCT040 BKN050
FM2100 02011KT P6SM SCT040 BKN050
FM0600 15005KT P6SM FEW035 SCT050
ハワイ時間27日02-11時:150度から5ノットの風
11-20時:020度から11ノットの風

20時-28日02時:150度から5ノットの風


サイパン空港
PGSN 271120Z 271212 06011KT P6SM FEW025
マリアナ時間27日22時-28日22時:060度から11ノットの風


グアム空港
PGUM 271120Z 271212 06011KT P6SM FEW025
マリアナ時間27日22時-28日22時:060度から11ノットの風


コメント

3/26-27の航空気象通報

2007年03月26日 21時49分55秒 | TAF
羽田空港
TTAF RJTT 260843Z 261812 02008KT 9999 FEW030
BECMG 2124 13008KT
BECMG 0609 21016KT
日本時間27日03-06時:020度から8ノットの風
06-09時:風が変化
09-15時:130度から8ノットの風
15-18時:風が変化
18-21時:210度から16ノットの風


那覇空港
ROAH 260851Z 261812 18013KT 9999 FEW010 SCT020
BECMG 0609 24015KT
TEMPO 0609 4000 SHRA
BECMG 0912 30014KT
日本時間27日03-06時:180度から13ノットの風
06-09時:風が変化
09-18時:240度から15ノットの風

但し、15-18時:一時、
18-21時:風が変化
21時:300度から14ノットの風


マウイのカフルイ空港
PHOG 261141Z 261212 06012G20KT P6SM SCT050
FM1500 06012KT P6SM SCT050
FM2000 06015G22KT P6SM FEW035 SCT050
FM0400 06012KT P6SM SCT050
FM1000 06007KT P6SM SCT050
ハワイ時間26日02-05時:060度から12ノット、突風20ノット
05-10時:060度から12ノットの風
10-18時:060度から15ノット、突風22ノット
18-24時:060度から12ノットの風
27日00-02時:060度から7ノットの風


サイパン空港
PGSN 261120Z 261212 06014KT P6SM SCT020
マリアナ時間26日22時-27日22時:060度から14ノットの風


グアム空港
PGUM 261120Z 261212 06011KT P6SM VCSH SCT022 OVC300
FM2200 07015KT P6SM VCSH SCT022 OVC300
マリアナ時間26日22時-27日08時:060度から11ノットの風
08-22時:070度から15ノットの風

コメント